Time;durP1;ratioP1;P1;durP2;ratioP2;P2;SDS_P1;SDS_P2;PMS_P1;PMS_P2;Temp;Humidity;BMP_temperature;BMP_pressure;BME280_temperature;BME280_humidity;BME280_pressure;Samples;Min_cycle;Max_cycle;Signal;HPM_P1;HPM_P2
2022/07/18 00:00:24;;;;;;;6.57;4.90;;;;;;;;;;4364909;32;20506;-65
2022/07/18 00:02:51;;;;;;;5.70;4.80;;;;;;;;;;4365554;32;20082;-66
2022/07/18 00:05:18;;;;;;;5.90;4.50;;;;;;;;;;4365459;32;20084;-66
2022/07/18 00:07:45;;;;;;;4.97;4.37;;;;;;;;;;4377523;32;20081;-65
2022/07/18 00:10:11;;;;;;;5.35;4.70;;;;;;;;;;4365453;32;20104;-67
2022/07/18 00:12:38;;;;;;;6.50;4.43;;;;;;;;;;4365598;32;20093;-66
2022/07/18 00:15:06;;;;;;;5.93;4.30;;;;;;;;;;4378209;32;20499;-66
2022/07/18 00:17:32;;;;;;;5.45;4.20;;;;;;;;;;4377623;32;20120;-65
2022/07/18 00:19:59;;;;;;;7.35;4.75;;;;;;;;;;4391810;32;20093;-66
2022/07/18 00:22:26;;;;;;;5.55;4.50;;;;;;;;;;4390813;32;20165;-66
2022/07/18 00:24:53;;;;;;;5.45;4.12;;;;;;;;;;4391232;32;20172;-65
2022/07/18 00:27:19;;;;;;;6.35;4.10;;;;;;;;;;4365246;32;20106;-65
2022/07/18 00:29:46;;;;;;;6.20;4.40;;;;;;;;;;4364845;32;20085;-66
2022/07/18 00:32:13;;;;;;;4.68;4.10;;;;;;;;;;4390142;32;20092;-66
2022/07/18 00:34:40;;;;;;;5.43;4.50;;;;;;;;;;4377342;32;20466;-66
2022/07/18 00:37:07;;;;;;;6.62;5.03;;;;;;;;;;4377328;32;20192;-66
2022/07/18 00:39:34;;;;;;;5.40;4.10;;;;;;;;;;4377378;32;20085;-65
2022/07/18 00:42:01;;;;;;;5.10;4.47;;;;;;;;;;4364786;32;20074;-66
2022/07/18 00:44:29;;;;;;;6.12;4.62;;;;;;;;;;4377476;32;20076;-65
2022/07/18 00:46:59;;;;;;;6.80;5.00;;;;;;;;;;4377375;32;20082;-66
2022/07/18 00:49:26;;;;;;;6.95;4.53;;;;;;;;;;4390152;32;20076;-66
2022/07/18 00:51:53;;;;;;;5.65;5.00;;;;;;;;;;4377138;32;20529;-66
2022/07/18 00:54:21;;;;;;;5.82;4.45;;;;;;;;;;4378784;32;20073;-65
2022/07/18 00:56:49;;;;;;;7.43;4.72;;;;;;;;;;4380409;32;20074;-66
2022/07/18 00:59:16;;;;;;;7.60;5.40;;;;;;;;;;4392999;32;20511;-66
2022/07/18 01:01:43;;;;;;;5.10;4.03;;;;;;;;;;4367676;32;20101;-65
2022/07/18 01:04:19;;;;;;;5.45;4.80;;;;;;;;;;4392770;32;20057;-66
2022/07/18 01:06:46;;;;;;;5.07;4.45;;;;;;;;;;4392894;32;20078;-66
2022/07/18 01:09:13;;;;;;;6.65;5.07;;;;;;;;;;4392793;32;20097;-65
2022/07/18 01:11:41;;;;;;;9.85;5.07;;;;;;;;;;4380759;32;20061;-66
2022/07/18 01:14:08;;;;;;;6.90;5.32;;;;;;;;;;4380586;32;20604;-66
2022/07/18 01:16:35;;;;;;;6.47;4.90;;;;;;;;;;4367358;32;20535;-66
2022/07/18 01:19:03;;;;;;;4.90;4.40;;;;;;;;;;4379903;32;20549;-66
2022/07/18 01:21:29;;;;;;;6.32;4.95;;;;;;;;;;4379655;32;20573;-66
2022/07/18 01:23:56;;;;;;;7.20;5.00;;;;;;;;;;4380103;32;20054;-65
2022/07/18 01:26:24;;;;;;;5.28;4.57;;;;;;;;;;4379873;32;20528;-65
2022/07/18 01:28:51;;;;;;;6.07;4.57;;;;;;;;;;4367455;32;20098;-66
2022/07/18 01:31:17;;;;;;;7.25;4.65;;;;;;;;;;4380320;32;20145;-66
2022/07/18 01:33:44;;;;;;;5.55;4.60;;;;;;;;;;4367443;32;20086;-65
2022/07/18 01:36:11;;;;;;;7.15;5.07;;;;;;;;;;4379909;32;20149;-65
2022/07/18 01:38:38;;;;;;;5.53;4.80;;;;;;;;;;4380589;32;20085;-65
2022/07/18 01:41:05;;;;;;;7.32;5.03;;;;;;;;;;4393957;32;20471;-65
2022/07/18 01:43:34;;;;;;;6.85;4.87;;;;;;;;;;4379583;32;20149;-66
2022/07/18 01:46:01;;;;;;;6.95;5.45;;;;;;;;;;4379558;32;20161;-67
2022/07/18 01:48:28;;;;;;;8.02;5.00;;;;;;;;;;4379695;32;20089;-66
2022/07/18 01:50:55;;;;;;;8.25;5.22;;;;;;;;;;4392406;32;20468;-66
2022/07/18 01:53:24;;;;;;;6.57;5.30;;;;;;;;;;4367327;32;20085;-66
2022/07/18 01:55:51;;;;;;;6.03;4.72;;;;;;;;;;4380508;32;20086;-66
2022/07/18 01:58:17;;;;;;;7.65;4.37;;;;;;;;;;4379672;32;20085;-66
2022/07/18 02:00:44;;;;;;;7.72;4.62;;;;;;;;;;4379778;32;20145;-66
2022/07/18 02:03:11;;;;;;;8.10;4.62;;;;;;;;;;4367044;32;20082;-66
2022/07/18 02:05:38;;;;;;;5.97;4.85;;;;;;;;;;4379127;32;20085;-66
2022/07/18 02:08:05;;;;;;;6.05;4.60;;;;;;;;;;4366663;32;20476;-66
2022/07/18 02:10:32;;;;;;;6.22;4.45;;;;;;;;;;4378920;32;20528;-66
2022/07/18 02:12:59;;;;;;;6.25;5.03;;;;;;;;;;4366613;32;20098;-65
2022/07/18 02:15:26;;;;;;;6.75;5.20;;;;;;;;;;4379128;32;20175;-66
2022/07/18 02:17:53;;;;;;;7.62;5.30;;;;;;;;;;4393110;32;20093;-66
2022/07/18 02:20:20;;;;;;;10.15;5.35;;;;;;;;;;4366955;32;20542;-66
2022/07/18 02:22:46;;;;;;;7.22;4.93;;;;;;;;;;4393327;32;20137;-66
2022/07/18 02:25:13;;;;;;;8.70;5.22;;;;;;;;;;4378831;32;20077;-66
2022/07/18 02:27:41;;;;;;;9.05;5.20;;;;;;;;;;4366240;32;20089;-65
2022/07/18 02:30:09;;;;;;;5.60;4.70;;;;;;;;;;4378899;32;20459;-66
2022/07/18 02:32:39;;;;;;;7.35;5.10;;;;;;;;;;4379106;32;20074;-65
2022/07/18 02:35:07;;;;;;;6.82;5.00;;;;;;;;;;4379528;32;20077;-65
2022/07/18 02:37:34;;;;;;;6.57;5.37;;;;;;;;;;4379160;32;20664;-66
2022/07/18 02:40:01;;;;;;;6.53;5.00;;;;;;;;;;4391888;32;20506;-66
2022/07/18 02:42:28;;;;;;;6.90;5.22;;;;;;;;;;4378314;32;20576;-66
2022/07/18 02:44:55;;;;;;;6.18;5.28;;;;;;;;;;4391570;32;20089;-64
2022/07/18 02:47:22;;;;;;;6.47;4.82;;;;;;;;;;4366368;32;20074;-65
2022/07/18 02:49:49;;;;;;;6.03;4.80;;;;;;;;;;4393105;32;20549;-65
2022/07/18 02:52:16;;;;;;;7.03;4.78;;;;;;;;;;4366458;32;20085;-66
2022/07/18 02:54:43;;;;;;;8.25;4.82;;;;;;;;;;4391305;32;20081;-66
2022/07/18 02:57:10;;;;;;;5.65;4.70;;;;;;;;;;4378876;32;20085;-66
2022/07/18 02:59:36;;;;;;;6.60;4.45;;;;;;;;;;4392561;32;20157;-66
2022/07/18 03:02:03;;;;;;;5.55;4.18;;;;;;;;;;4379228;32;20070;-66
2022/07/18 03:04:30;;;;;;;5.75;4.40;;;;;;;;;;4378814;32;20065;-65
2022/07/18 03:06:57;;;;;;;6.50;4.85;;;;;;;;;;4378272;32;20070;-65
2022/07/18 03:09:27;;;;;;;6.95;4.87;;;;;;;;;;4378542;32;20525;-65
2022/07/18 03:11:55;;;;;;;6.87;4.35;;;;;;;;;;4391804;32;20061;-66
2022/07/18 03:14:22;;;;;;;6.70;4.50;;;;;;;;;;4391027;32;20069;-65
2022/07/18 03:16:49;;;;;;;8.63;4.75;;;;;;;;;;4378542;32;20094;-65
2022/07/18 03:19:16;;;;;;;5.40;4.65;;;;;;;;;;4378567;32;20077;-66
2022/07/18 03:21:43;;;;;;;6.30;5.53;;;;;;;;;;4378252;32;20082;-66
2022/07/18 03:24:10;;;;;;;9.82;6.85;;;;;;;;;;4390608;32;20077;-66
2022/07/18 03:26:37;;;;;;;9.43;5.18;;;;;;;;;;4392394;32;20062;-65
2022/07/18 03:29:04;;;;;;;6.12;5.37;;;;;;;;;;4378677;32;20169;-66
2022/07/18 03:31:31;;;;;;;9.45;5.65;;;;;;;;;;4391040;32;20088;-66
2022/07/18 03:33:58;;;;;;;6.30;5.18;;;;;;;;;;4378757;32;20162;-66
2022/07/18 03:36:25;;;;;;;8.80;6.57;;;;;;;;;;4378479;32;20072;-66
2022/07/18 03:38:52;;;;;;;7.35;5.37;;;;;;;;;;4365460;32;20100;-66
2022/07/18 03:41:19;;;;;;;8.32;5.05;;;;;;;;;;4365682;32;20065;-64
2022/07/18 03:43:46;;;;;;;7.87;5.40;;;;;;;;;;4378258;32;20076;-66
2022/07/18 03:46:12;;;;;;;8.73;5.12;;;;;;;;;;4377955;32;20082;-66
2022/07/18 03:48:39;;;;;;;5.62;4.90;;;;;;;;;;4390366;32;20508;-66
2022/07/18 03:51:06;;;;;;;7.50;4.65;;;;;;;;;;4390548;32;20094;-66
2022/07/18 03:53:34;;;;;;;6.43;4.05;;;;;;;;;;4377931;32;20583;-66
2022/07/18 03:56:01;;;;;;;5.05;3.67;;;;;;;;;;4378110;32;20068;-66
2022/07/18 03:58:27;;;;;;;6.93;3.90;;;;;;;;;;4378204;32;20089;-65
2022/07/18 04:00:54;;;;;;;6.10;3.87;;;;;;;;;;4378235;32;20081;-65
2022/07/18 04:03:22;;;;;;;5.75;3.33;;;;;;;;;;4377841;32;20058;-66
2022/07/18 04:05:48;;;;;;;4.25;3.33;;;;;;;;;;4390601;32;20073;-66
2022/07/18 04:08:15;;;;;;;10.15;4.03;;;;;;;;;;4391047;32;20085;-65
2022/07/18 04:10:43;;;;;;;7.03;3.67;;;;;;;;;;4365222;32;20089;-65
2022/07/18 04:13:10;;;;;;;6.57;3.97;;;;;;;;;;4390238;32;20154;-66
2022/07/18 04:15:37;;;;;;;5.37;3.67;;;;;;;;;;4365904;32;20443;-65
2022/07/18 04:18:05;;;;;;;6.35;3.90;;;;;;;;;;4377460;32;20165;-64
2022/07/18 04:20:32;;;;;;;4.97;3.65;;;;;;;;;;4390535;32;20097;-66
2022/07/18 04:23:03;;;;;;;4.40;3.50;;;;;;;;;;4378074;32;20073;-66
2022/07/18 04:25:35;;;;;;;4.57;3.50;;;;;;;;;;4377720;32;20096;-65
2022/07/18 04:28:05;;;;;;;7.47;3.80;;;;;;;;;;4390410;32;20148;-66
2022/07/18 04:30:33;;;;;;;4.45;3.50;;;;;;;;;;4390145;32;20085;-65
2022/07/18 04:33:02;;;;;;;4.57;3.60;;;;;;;;;;4377906;32;20177;-64
2022/07/18 04:35:30;;;;;;;5.28;4.00;;;;;;;;;;4389950;32;20082;-66
2022/07/18 04:37:57;;;;;;;4.40;3.53;;;;;;;;;;4377263;32;20141;-66
2022/07/18 04:40:24;;;;;;;7.55;4.60;;;;;;;;;;4365081;32;20100;-66
2022/07/18 04:42:51;;;;;;;7.20;4.78;;;;;;;;;;4364917;32;20077;-66
2022/07/18 04:45:21;;;;;;;7.72;3.92;;;;;;;;;;4389797;32;20093;-66
2022/07/18 04:47:50;;;;;;;6.03;3.80;;;;;;;;;;4389987;32;20058;-66
2022/07/18 04:50:16;;;;;;;5.30;3.72;;;;;;;;;;4390051;32;20070;-66
2022/07/18 04:52:45;;;;;;;5.68;4.22;;;;;;;;;;4377256;32;20100;-66
2022/07/18 04:55:13;;;;;;;5.55;4.03;;;;;;;;;;4391034;32;20472;-66
2022/07/18 04:57:40;;;;;;;5.12;4.03;;;;;;;;;;4389620;32;20149;-66
2022/07/18 05:00:12;;;;;;;4.80;4.05;;;;;;;;;;4389515;32;20066;-66
2022/07/18 05:02:43;;;;;;;6.72;4.22;;;;;;;;;;4390129;32;20103;-66
2022/07/18 05:05:11;;;;;;;5.10;3.97;;;;;;;;;;4377208;32;20166;-66
2022/07/18 05:07:39;;;;;;;6.85;4.32;;;;;;;;;;4364423;32;20078;-65
2022/07/18 05:10:07;;;;;;;6.60;4.07;;;;;;;;;;4377311;32;20154;-66
2022/07/18 05:12:35;;;;;;;7.20;3.83;;;;;;;;;;4377702;32;20086;-65
2022/07/18 05:15:04;;;;;;;7.43;4.00;;;;;;;;;;4391123;32;20105;-65
2022/07/18 05:17:30;;;;;;;4.90;3.90;;;;;;;;;;4389712;32;20146;-66
2022/07/18 05:19:57;;;;;;;5.18;4.12;;;;;;;;;;4376997;32;20086;-66
2022/07/18 05:22:25;;;;;;;9.18;4.65;;;;;;;;;;4377051;32;20161;-65
2022/07/18 05:24:52;;;;;;;4.50;3.90;;;;;;;;;;4376989;32;20097;-66
2022/07/18 05:27:19;;;;;;;5.10;3.85;;;;;;;;;;4377590;32;20136;-66
2022/07/18 05:29:46;;;;;;;4.35;3.30;;;;;;;;;;4376889;32;20058;-66
2022/07/18 05:32:12;;;;;;;3.70;3.28;;;;;;;;;;4391175;32;20070;-65
2022/07/18 05:34:39;;;;;;;4.43;3.42;;;;;;;;;;4377654;32;20085;-66
2022/07/18 05:37:06;;;;;;;4.80;3.97;;;;;;;;;;4377139;32;20162;-64
2022/07/18 05:39:33;;;;;;;4.32;3.60;;;;;;;;;;4377142;32;20186;-66
2022/07/18 05:41:59;;;;;;;7.43;4.12;;;;;;;;;;4394049;32;20166;-65
2022/07/18 05:44:26;;;;;;;5.50;4.00;;;;;;;;;;4379797;32;20492;-66
2022/07/18 05:46:53;;;;;;;4.47;3.55;;;;;;;;;;4392457;32;20520;-66
2022/07/18 05:49:20;;;;;;;6.85;3.90;;;;;;;;;;4379586;32;20074;-66
2022/07/18 05:51:47;;;;;;;6.85;4.62;;;;;;;;;;4379557;32;20527;-67
2022/07/18 05:54:18;;;;;;;7.80;4.95;;;;;;;;;;4393670;32;20097;-66
2022/07/18 05:56:47;;;;;;;6.68;4.47;;;;;;;;;;4392442;32;20066;-66
2022/07/18 05:59:14;;;;;;;4.75;4.18;;;;;;;;;;4392324;32;20182;-66
2022/07/18 06:01:40;;;;;;;5.93;4.57;;;;;;;;;;4379635;32;20496;-66
2022/07/18 06:04:07;;;;;;;5.10;4.00;;;;;;;;;;4379213;32;20504;-66
2022/07/18 06:06:34;;;;;;;6.37;4.68;;;;;;;;;;4391878;32;20164;-66
2022/07/18 06:09:01;;;;;;;6.05;4.12;;;;;;;;;;4391506;32;20069;-66
2022/07/18 06:11:28;;;;;;;7.25;5.20;;;;;;;;;;4366909;32;20501;-66
2022/07/18 06:13:55;;;;;;;10.75;5.43;;;;;;;;;;4392338;32;20078;-65
2022/07/18 06:16:22;;;;;;;11.60;7.40;;;;;;;;;;4392029;32;20133;-66
2022/07/18 06:18:49;;;;;;;11.40;6.40;;;;;;;;;;4379184;32;20068;-66
2022/07/18 06:21:16;;;;;;;15.80;8.20;;;;;;;;;;4366795;32;20100;-64
2022/07/18 06:23:42;;;;;;;13.43;7.68;;;;;;;;;;4391366;32;20170;-66
2022/07/18 06:26:09;;;;;;;9.55;7.00;;;;;;;;;;4366565;32;20076;-66
2022/07/18 06:28:36;;;;;;;9.55;5.93;;;;;;;;;;4378549;32;20085;-66
2022/07/18 06:31:03;;;;;;;11.10;6.55;;;;;;;;;;4391392;32;20081;-66
2022/07/18 06:33:30;;;;;;;10.98;6.32;;;;;;;;;;4378614;32;20086;-66
2022/07/18 06:35:57;;;;;;;12.02;6.53;;;;;;;;;;4391193;32;20163;-66
2022/07/18 06:38:24;;;;;;;8.50;5.78;;;;;;;;;;4366628;32;20161;-65
2022/07/18 06:40:51;;;;;;;10.52;5.85;;;;;;;;;;4391819;32;20149;-65
2022/07/18 06:43:21;;;;;;;7.47;5.43;;;;;;;;;;4378986;32;20078;-65
2022/07/18 06:45:51;;;;;;;9.88;6.68;;;;;;;;;;4378994;32;20508;-66
2022/07/18 06:48:18;;;;;;;10.00;6.05;;;;;;;;;;4391273;32;20073;-66
2022/07/18 06:50:45;;;;;;;8.25;5.93;;;;;;;;;;4366709;32;20123;-65
2022/07/18 06:53:12;;;;;;;9.52;6.50;;;;;;;;;;4378676;32;20067;-65
2022/07/18 06:55:39;;;;;;;7.93;5.15;;;;;;;;;;4378564;32;20093;-66
2022/07/18 06:58:05;;;;;;;7.25;4.57;;;;;;;;;;4393278;32;20161;-67
2022/07/18 07:00:32;;;;;;;8.98;6.05;;;;;;;;;;4366451;32;20095;-67
2022/07/18 07:02:59;;;;;;;9.02;5.50;;;;;;;;;;4378100;32;20583;-65
2022/07/18 07:05:26;;;;;;;8.73;5.22;;;;;;;;;;4378898;32;20113;-66
2022/07/18 07:07:53;;;;;;;10.07;4.90;;;;;;;;;;4378764;32;20112;-66
2022/07/18 07:10:20;;;;;;;6.05;4.82;;;;;;;;;;4378037;32;20158;-65
2022/07/18 07:12:51;;;;;;;8.80;4.60;;;;;;;;;;4378417;32;20089;-66
2022/07/18 07:15:20;;;;;;;6.87;4.85;;;;;;;;;;4365708;32;20583;-66
2022/07/18 07:17:47;;;;;;;3.92;3.42;;;;;;;;;;4391604;32;20073;-66
2022/07/18 07:20:14;;;;;;;4.47;3.62;;;;;;;;;;4366420;32;20147;-66
2022/07/18 07:22:52;;;;;;;5.40;4.00;;;;;;;;;;4378631;32;20444;-65
2022/07/18 07:25:19;;;;;;;3.50;3.20;;;;;;;;;;4390536;32;20077;-65
2022/07/18 07:27:46;;;;;;;4.93;3.70;;;;;;;;;;4377908;32;20576;-66
2022/07/18 07:30:14;;;;;;;4.47;3.97;;;;;;;;;;4365740;32;20105;-65
2022/07/18 07:32:42;;;;;;;4.30;3.75;;;;;;;;;;4390740;32;20078;-66
2022/07/18 07:35:12;;;;;;;5.35;3.95;;;;;;;;;;4378804;32;20081;-65
2022/07/18 07:37:40;;;;;;;5.18;3.65;;;;;;;;;;4378449;32;20094;-66
2022/07/18 07:40:08;;;;;;;4.70;3.75;;;;;;;;;;4378002;32;20133;-66
2022/07/18 07:42:34;;;;;;;5.78;4.15;;;;;;;;;;4390170;32;20184;-66
2022/07/18 07:45:01;;;;;;;4.57;3.50;;;;;;;;;;4378278;32;20585;-66
2022/07/18 07:47:28;;;;;;;4.70;3.80;;;;;;;;;;4390803;32;20080;-66
2022/07/18 07:49:56;;;;;;;4.50;3.70;;;;;;;;;;4365703;32;20092;-65
2022/07/18 07:52:23;;;;;;;5.20;3.83;;;;;;;;;;4390747;32;20102;-65
2022/07/18 07:54:53;;;;;;;7.40;4.30;;;;;;;;;;4391957;32;20093;-65
2022/07/18 07:57:20;;;;;;;6.22;4.90;;;;;;;;;;4377986;32;20085;-66
2022/07/18 07:59:47;;;;;;;9.13;4.30;;;;;;;;;;4378407;32;20085;-67
2022/07/18 08:02:15;;;;;;;7.72;5.25;;;;;;;;;;4390317;32;20086;-65
2022/07/18 08:04:42;;;;;;;7.85;4.20;;;;;;;;;;4377387;32;20070;-66
2022/07/18 08:07:09;;;;;;;5.12;3.95;;;;;;;;;;4391894;32;20080;-65
2022/07/18 08:09:36;;;;;;;4.15;3.75;;;;;;;;;;4377315;32;20178;-66
2022/07/18 08:12:02;;;;;;;4.30;3.50;;;;;;;;;;4392137;32;20086;-66
2022/07/18 08:14:32;;;;;;;4.82;3.92;;;;;;;;;;4365259;32;20106;-65
2022/07/18 08:16:59;;;;;;;5.30;3.80;;;;;;;;;;4377419;32;20507;-65
2022/07/18 08:19:26;;;;;;;5.90;4.22;;;;;;;;;;4367019;32;20070;-66
2022/07/18 08:21:53;;;;;;;5.43;4.12;;;;;;;;;;4383366;32;20066;-65
2022/07/18 08:24:20;;;;;;;5.28;4.12;;;;;;;;;;4383279;32;20078;-66
2022/07/18 08:26:47;;;;;;;5.72;3.87;;;;;;;;;;4384272;32;20074;-66
2022/07/18 08:29:14;;;;;;;6.43;4.22;;;;;;;;;;4371916;32;20116;-67
2022/07/18 08:31:41;;;;;;;5.82;4.22;;;;;;;;;;4371285;32;20084;-64
2022/07/18 08:34:08;;;;;;;8.10;5.43;;;;;;;;;;4370125;32;20082;-67
2022/07/18 08:36:34;;;;;;;12.30;7.90;;;;;;;;;;4381393;32;20074;-65
2022/07/18 08:39:01;;;;;;;10.55;7.60;;;;;;;;;;4383110;32;20071;-67
2022/07/18 08:41:28;;;;;;;9.98;7.28;;;;;;;;;;4392520;32;20073;-66
2022/07/18 08:43:56;;;;;;;7.97;6.32;;;;;;;;;;4390249;32;20094;-66
2022/07/18 08:46:23;;;;;;;6.03;4.55;;;;;;;;;;4365467;32;20569;-67
2022/07/18 08:48:55;;;;;;;8.35;6.10;;;;;;;;;;4377379;32;20183;-66
2022/07/18 08:51:22;;;;;;;7.65;5.50;;;;;;;;;;4391236;32;20528;-64
2022/07/18 08:53:51;;;;;;;7.37;4.82;;;;;;;;;;4377976;32;20086;-66
2022/07/18 08:56:18;;;;;;;6.53;4.80;;;;;;;;;;4390124;32;20554;-65
2022/07/18 08:58:45;;;;;;;7.97;5.30;;;;;;;;;;4378028;32;20520;-67
2022/07/18 09:01:12;;;;;;;5.87;4.80;;;;;;;;;;4377353;32;20089;-67
2022/07/18 09:03:39;;;;;;;5.85;4.80;;;;;;;;;;4364662;32;20155;-66
2022/07/18 09:06:11;;;;;;;6.78;4.82;;;;;;;;;;4390155;32;20097;-66
2022/07/18 09:08:39;;;;;;;5.68;4.87;;;;;;;;;;4389646;32;20086;-67
2022/07/18 09:11:11;;;;;;;4.60;3.75;;;;;;;;;;4377196;32;20194;-66
2022/07/18 09:13:39;;;;;;;7.70;5.53;;;;;;;;;;4390028;32;20505;-66
2022/07/18 09:16:07;;;;;;;7.20;5.40;;;;;;;;;;4378740;32;20104;-67
2022/07/18 09:18:41;;;;;;;8.02;6.35;;;;;;;;;;4380163;32;20169;-66
2022/07/18 09:21:11;;;;;;;5.90;4.32;;;;;;;;;;4392508;32;20151;-66
2022/07/18 09:23:40;;;;;;;6.70;4.70;;;;;;;;;;4392757;32;20073;-65
2022/07/18 09:26:07;;;;;;;5.43;4.62;;;;;;;;;;4380134;32;20073;-66
2022/07/18 09:28:48;;;;;;;4.78;4.15;;;;;;;;;;4392099;32;20148;-66
2022/07/18 09:31:22;;;;;;;5.97;4.78;;;;;;;;;;4392645;32;20552;-66
2022/07/18 09:33:56;;;;;;;5.32;4.80;;;;;;;;;;4392872;32;20081;-66
2022/07/18 09:36:23;;;;;;;5.87;4.18;;;;;;;;;;4379817;32;20093;-66
2022/07/18 09:38:50;;;;;;;7.00;4.12;;;;;;;;;;4367892;32;20211;-65
2022/07/18 09:41:21;;;;;;;6.80;4.50;;;;;;;;;;4392410;32;20128;-66
2022/07/18 09:43:47;;;;;;;4.93;4.25;;;;;;;;;;4380425;32;20504;-66
2022/07/18 09:46:14;;;;;;;9.32;5.03;;;;;;;;;;4367815;32;20162;-66
2022/07/18 09:48:41;;;;;;;6.00;4.80;;;;;;;;;;4367459;32;20066;-66
2022/07/18 09:51:09;;;;;;;6.40;4.50;;;;;;;;;;4392205;32;20463;-66
2022/07/18 09:53:43;;;;;;;7.00;4.37;;;;;;;;;;4379824;32;20084;-64
2022/07/18 09:56:13;;;;;;;5.35;4.68;;;;;;;;;;4392410;32;20066;-65
2022/07/18 09:58:42;;;;;;;6.35;4.45;;;;;;;;;;4367243;32;20086;-67
2022/07/18 10:01:11;;;;;;;5.03;4.32;;;;;;;;;;4392682;32;20108;-65
2022/07/18 10:03:39;;;;;;;6.65;4.50;;;;;;;;;;4380004;32;20069;-67
2022/07/18 10:06:06;;;;;;;6.45;4.20;;;;;;;;;;4379463;32;20497;-68
2022/07/18 10:08:35;;;;;;;5.75;5.07;;;;;;;;;;4379271;32;20161;-68
2022/07/18 10:11:03;;;;;;;5.78;4.68;;;;;;;;;;4392045;32;20086;-68
2022/07/18 10:13:31;;;;;;;4.53;4.00;;;;;;;;;;4380172;32;20132;-68
2022/07/18 10:15:58;;;;;;;6.78;4.95;;;;;;;;;;4391635;32;20093;-67
2022/07/18 10:18:27;;;;;;;6.75;4.60;;;;;;;;;;4391878;32;20104;-67
2022/07/18 10:21:10;;;;;;;5.82;4.97;;;;;;;;;;4391923;32;20094;-68
2022/07/18 10:23:44;;;;;;;5.82;4.80;;;;;;;;;;4393387;32;20078;-67
2022/07/18 10:26:25;;;;;;;6.37;5.45;;;;;;;;;;4378680;32;20077;-67
2022/07/18 10:28:58;;;;;;;9.13;5.50;;;;;;;;;;4391685;32;20092;-66
2022/07/18 10:31:30;;;;;;;5.97;4.93;;;;;;;;;;4378788;32;20535;-65
2022/07/18 10:34:12;;;;;;;6.62;5.40;;;;;;;;;;4391814;32;20090;-65
2022/07/18 10:37:03;;;;;;;8.43;6.10;;;;;;;;;;4379131;32;20440;-65
2022/07/18 10:39:38;;;;;;;8.55;6.50;;;;;;;;;;4378685;32;20081;-64
2022/07/18 10:42:11;;;;;;;7.75;6.40;;;;;;;;;;4379109;32;20101;-66
2022/07/18 10:44:40;;;;;;;6.22;5.35;;;;;;;;;;4378905;32;20069;-66
2022/07/18 10:49:52;;;;;;;6.47;5.68;;;;;;;;;;4391600;32;20405;-65
2022/07/18 10:52:26;;;;;;;7.40;6.37;;;;;;;;;;4378751;32;20074;-66
2022/07/18 10:57:35;;;;;;;10.05;7.50;;;;;;;;;;4391358;32;20173;-67
2022/07/18 11:00:28;;;;;;;8.57;6.60;;;;;;;;;;4378916;32;20066;-65
2022/07/18 11:03:01;;;;;;;7.18;5.62;;;;;;;;;;4366864;32;20097;-69
2022/07/18 11:05:27;;;;;;;9.43;6.60;;;;;;;;;;4378687;32;20070;-65
2022/07/18 11:08:08;;;;;;;6.60;6.00;;;;;;;;;;4391066;32;20080;-65
2022/07/18 11:10:45;;;;;;;7.43;5.47;;;;;;;;;;4392218;32;20154;-66
2022/07/18 11:16:07;;;;;;;6.85;5.60;;;;;;;;;;4390663;32;20086;-66
2022/07/18 11:18:43;;;;;;;7.75;6.22;;;;;;;;;;4391395;32;20065;-65
2022/07/18 11:21:34;;;;;;;5.97;5.37;;;;;;;;;;4391019;32;20141;-65
2022/07/18 11:24:06;;;;;;;7.43;5.97;;;;;;;;;;4391204;32;20081;-65
2022/07/18 11:26:37;;;;;;;11.15;6.28;;;;;;;;;;4378418;32;20078;-66
2022/07/18 11:29:05;;;;;;;7.93;7.12;;;;;;;;;;4378147;32;20116;-66
2022/07/18 11:31:43;;;;;;;6.87;6.07;;;;;;;;;;4365850;32;20085;-66
2022/07/18 11:34:10;;;;;;;6.93;5.95;;;;;;;;;;4391452;32;20077;-66
2022/07/18 11:36:41;;;;;;;6.50;5.53;;;;;;;;;;4390413;32;20479;-66
2022/07/18 11:39:07;;;;;;;7.85;7.15;;;;;;;;;;4378517;32;20162;-67
2022/07/18 11:41:40;;;;;;;7.35;6.65;;;;;;;;;;4378082;32;20513;-66
2022/07/18 11:44:26;;;;;;;6.87;5.43;;;;;;;;;;4365483;32;20455;-65
2022/07/18 11:47:03;;;;;;;;;;;;;;;;;;4366881;32;20062;-65
2022/07/18 11:49:29;;;;;;;10.10;7.87;;;;;;;;;;4365090;32;20487;-67
2022/07/18 11:51:56;;;;;;;6.30;5.70;;;;;;;;;;4390430;32;20152;-68
2022/07/18 11:54:25;;;;;;;9.57;7.35;;;;;;;;;;4377851;32;20073;-67
2022/07/18 11:56:55;;;;;;;6.18;5.57;;;;;;;;;;4391285;32;20089;-66
2022/07/18 11:59:23;;;;;;;7.32;6.62;;;;;;;;;;4365515;32;20151;-67
2022/07/18 12:01:55;;;;;;;7.12;6.37;;;;;;;;;;4377453;32;20070;-64
2022/07/18 12:04:23;;;;;;;7.30;6.03;;;;;;;;;;4391054;32;20081;-65
2022/07/18 12:07:19;;;;;;;8.05;6.35;;;;;;;;;;4365494;32;20076;-66
2022/07/18 12:09:48;;;;;;;7.10;6.40;;;;;;;;;;4365494;32;20165;-66
2022/07/18 12:12:16;;;;;;;7.72;5.60;;;;;;;;;;4378361;32;20074;-66
2022/07/18 12:14:43;;;;;;;6.95;5.75;;;;;;;;;;4377769;32;20070;-65
2022/07/18 12:17:09;;;;;;;8.93;6.00;;;;;;;;;;4390337;32;20080;-64
2022/07/18 12:19:39;;;;;;;8.23;5.95;;;;;;;;;;4389945;32;20093;-66
2022/07/18 12:22:12;;;;;;;8.15;6.43;;;;;;;;;;4390045;32;20087;-67
2022/07/18 12:24:54;;;;;;;6.85;5.78;;;;;;;;;;4377346;32;20067;-67
2022/07/18 12:27:26;;;;;;;6.45;5.72;;;;;;;;;;4390531;32;20089;-66
2022/07/18 12:30:10;;;;;;;8.80;5.70;;;;;;;;;;4377064;32;20090;-66
2022/07/18 12:32:54;;;;;;;6.37;5.60;;;;;;;;;;4390728;32;20526;-66
2022/07/18 12:35:28;;;;;;;7.68;6.43;;;;;;;;;;4365224;32;20081;-66
2022/07/18 12:38:04;;;;;;;8.70;6.57;;;;;;;;;;4389907;32;20077;-68
2022/07/18 12:40:47;;;;;;;;;;;;;;;;;;4390613;32;20263;-65
2022/07/18 12:43:30;;;;;;;5.22;4.72;;;;;;;;;;4377897;32;20069;-65
2022/07/18 12:45:58;;;;;;;5.65;5.05;;;;;;;;;;4389743;32;20526;-65
2022/07/18 12:48:26;;;;;;;5.95;4.75;;;;;;;;;;4389729;32;20081;-65
2022/07/18 12:50:58;;;;;;;8.30;6.15;;;;;;;;;;4364747;32;20080;-64
2022/07/18 12:53:25;;;;;;;8.82;5.87;;;;;;;;;;4389792;32;20080;-65
2022/07/18 12:55:52;;;;;;;7.30;5.60;;;;;;;;;;4377891;32;20082;-65
2022/07/18 12:58:19;;;;;;;8.48;5.75;;;;;;;;;;4365238;32;20093;-65
2022/07/18 13:00:46;;;;;;;7.28;5.72;;;;;;;;;;4377624;32;20074;-67
2022/07/18 13:03:14;;;;;;;6.50;5.60;;;;;;;;;;4364333;32;20464;-65
2022/07/18 13:05:41;;;;;;;7.60;5.65;;;;;;;;;;4391214;32;20086;-66
2022/07/18 13:08:08;;;;;;;7.95;5.50;;;;;;;;;;4389631;32;20605;-67
2022/07/18 13:10:36;;;;;;;8.15;5.50;;;;;;;;;;4389435;32;20528;-65
2022/07/18 13:13:04;;;;;;;10.40;5.65;;;;;;;;;;4377031;32;20475;-66
2022/07/18 13:15:31;;;;;;;7.28;6.00;;;;;;;;;;4391315;32;20078;-65
2022/07/18 13:17:58;;;;;;;8.15;5.85;;;;;;;;;;4364875;32;20081;-66
2022/07/18 13:20:26;;;;;;;5.82;4.85;;;;;;;;;;4376921;32;20054;-65
2022/07/18 13:22:53;;;;;;;5.65;5.03;;;;;;;;;;4364653;32;20489;-66
2022/07/18 13:25:21;;;;;;;6.18;5.12;;;;;;;;;;4377201;32;20074;-65
2022/07/18 13:27:48;;;;;;;7.80;5.50;;;;;;;;;;4389607;32;20142;-69
2022/07/18 13:30:15;;;;;;;7.20;6.25;;;;;;;;;;4364712;32;20187;-67
2022/07/18 13:32:45;;;;;;;10.80;6.35;;;;;;;;;;4365238;32;20172;-67
2022/07/18 13:35:12;;;;;;;6.65;5.85;;;;;;;;;;4389828;32;20162;-68
2022/07/18 13:37:39;;;;;;;9.98;6.28;;;;;;;;;;4376854;32;20089;-66
2022/07/18 13:40:07;;;;;;;7.53;5.93;;;;;;;;;;4364466;32;20082;-65
2022/07/18 13:42:35;;;;;;;8.40;5.85;;;;;;;;;;4377349;32;20081;-66
2022/07/18 13:45:01;;;;;;;9.35;6.18;;;;;;;;;;4376761;32;20113;-66
2022/07/18 13:47:28;;;;;;;8.15;6.40;;;;;;;;;;4377402;32;20086;-66
2022/07/18 13:49:55;;;;;;;7.35;5.90;;;;;;;;;;4364955;32;20097;-65
2022/07/18 13:52:22;;;;;;;10.35;7.85;;;;;;;;;;4364237;32;20519;-66
2022/07/18 13:54:50;;;;;;;9.73;6.80;;;;;;;;;;4364789;32;20147;-66
2022/07/18 13:57:16;;;;;;;9.32;5.97;;;;;;;;;;4364526;32;20086;-64
2022/07/18 13:59:43;;;;;;;8.10;6.43;;;;;;;;;;4376763;32;20077;-66
2022/07/18 14:02:10;;;;;;;10.02;6.12;;;;;;;;;;4377393;32;20058;-65
2022/07/18 14:04:37;;;;;;;8.43;6.70;;;;;;;;;;4379435;32;20166;-66
2022/07/18 14:07:06;;;;;;;9.38;6.95;;;;;;;;;;4367052;32;20162;-67
2022/07/18 14:09:33;;;;;;;9.40;6.22;;;;;;;;;;4391639;32;20097;-65
2022/07/18 14:11:59;;;;;;;10.02;7.03;;;;;;;;;;4379128;32;20471;-66
2022/07/18 14:14:26;;;;;;;6.90;5.70;;;;;;;;;;4379671;32;20068;-65
2022/07/18 14:16:53;;;;;;;8.00;7.00;;;;;;;;;;4379380;32;20129;-64
2022/07/18 14:19:20;;;;;;;9.38;6.28;;;;;;;;;;4367077;32;20155;-65
2022/07/18 14:21:47;;;;;;;8.18;6.15;;;;;;;;;;4391658;32;20148;-67
2022/07/18 14:24:14;;;;;;;6.53;5.82;;;;;;;;;;4366454;32;20089;-66
2022/07/18 14:26:41;;;;;;;7.32;6.35;;;;;;;;;;4366653;32;20074;-65
2022/07/18 14:29:07;;;;;;;6.93;6.03;;;;;;;;;;4391420;32;20090;-67
2022/07/18 14:31:34;;;;;;;8.05;6.28;;;;;;;;;;4379460;32;20137;-67
2022/07/18 14:34:01;;;;;;;8.07;6.50;;;;;;;;;;4379256;32;20520;-66
2022/07/18 14:36:29;;;;;;;7.60;6.62;;;;;;;;;;4379085;32;20084;-66
2022/07/18 14:38:56;;;;;;;9.35;6.57;;;;;;;;;;4366704;32;20074;-66
2022/07/18 14:41:23;;;;;;;7.07;6.12;;;;;;;;;;4379068;32;20460;-67
2022/07/18 14:43:49;;;;;;;8.25;6.80;;;;;;;;;;4379164;32;20155;-67
2022/07/18 14:46:16;;;;;;;9.25;6.70;;;;;;;;;;4393347;32;20086;-66
2022/07/18 14:48:43;;;;;;;7.93;6.00;;;;;;;;;;4366398;32;20093;-66
2022/07/18 14:51:10;;;;;;;7.57;5.62;;;;;;;;;;4391577;32;20139;-66
2022/07/18 14:53:36;;;;;;;6.57;4.93;;;;;;;;;;4391191;32;20074;-66
2022/07/18 14:56:03;;;;;;;6.00;4.97;;;;;;;;;;4391743;32;20152;-67
2022/07/18 14:58:30;;;;;;;7.62;5.37;;;;;;;;;;4366298;32;20108;-66